Time;durP1;ratioP1;P1;durP2;ratioP2;P2;SDS_P1;SDS_P2;PMS_P1;PMS_P2;Temp;Humidity;BMP_temperature;BMP_pressure;BME280_temperature;BME280_humidity;BME280_pressure;Samples;Min_cycle;Max_cycle;Signal;HPM_P1;HPM_P2
2023/04/07 00:01:07;;;;;;;15.90;11.43;;;;;;;5.40;90.64;95524.06;6045941;23;20161;-84
2023/04/07 00:03:33;;;;;;;16.03;12.20;;;;;;;5.33;90.43;95522.91;6043896;23;20153;-84
2023/04/07 00:05:58;;;;;;;16.83;12.20;;;;;;;5.36;90.53;95522.66;6045049;23;20158;-83
2023/04/07 00:08:23;;;;;;;16.10;11.87;;;;;;;5.43;90.27;95529.94;6045650;23;20177;-84
2023/04/07 00:10:48;;;;;;;15.57;11.37;;;;;;;5.40;90.54;95528.41;6046662;23;20188;-84
2023/04/07 00:13:14;;;;;;;14.60;11.43;;;;;;;5.44;89.90;95531.56;6070030;23;20176;-83
2023/04/07 00:15:39;;;;;;;18.40;11.47;;;;;;;5.37;90.08;95524.28;6070160;23;20168;-83
2023/04/07 00:18:04;;;;;;;16.47;11.57;;;;;;;5.42;90.17;95536.00;6045829;23;20232;-83
2023/04/07 00:20:30;;;;;;;16.80;12.13;;;;;;;5.42;89.84;95531.69;6046000;23;20204;-83
2023/04/07 00:22:55;;;;;;;15.53;11.83;;;;;;;5.43;89.75;95533.31;6048449;23;20185;-83
2023/04/07 00:25:20;;;;;;;16.10;11.40;;;;;;;5.38;89.56;95519.97;6046053;23;20166;-82
2023/04/07 00:27:45;;;;;;;17.83;12.57;;;;;;;5.36;90.10;95525.22;6045839;23;20160;-82
2023/04/07 00:30:14;;;;;;;17.17;11.90;;;;;;;5.39;90.74;95524.19;6045295;23;20218;-83
2023/04/07 00:32:39;;;;;;;15.03;11.17;;;;;;;5.42;90.58;95518.81;6046166;23;20189;-83
2023/04/07 00:35:05;;;;;;;13.67;11.23;;;;;;;5.42;90.75;95498.19;6044286;23;20169;-82
2023/04/07 00:37:30;;;;;;;17.20;11.17;;;;;;;5.36;90.43;95507.22;6045523;23;20161;-83
2023/04/07 00:39:56;;;;;;;17.23;12.13;;;;;;;5.40;89.74;95494.94;6045213;23;20183;-83
2023/04/07 00:42:22;;;;;;;16.23;12.23;;;;;;;5.27;90.47;95495.03;6045505;23;20696;-83
2023/04/07 00:44:47;;;;;;;15.47;12.27;;;;;;;5.31;90.61;95486.16;6044246;23;20157;-83
2023/04/07 00:47:13;;;;;;;16.70;12.73;;;;;;;5.35;90.86;95479.81;6044913;23;20171;-83
2023/04/07 00:49:38;;;;;;;17.37;13.67;;;;;;;5.24;91.55;95484.97;6050370;23;20193;-82
2023/04/07 00:52:05;;;;;;;17.10;12.73;;;;;;;5.24;91.46;95482.41;6068437;23;20604;-83
2023/04/07 00:54:30;;;;;;;16.30;12.53;;;;;;;5.17;91.80;95473.50;6068890;23;20165;-82
2023/04/07 00:56:56;;;;;;;17.17;12.30;;;;;;;5.06;92.12;95478.66;6068081;23;20161;-83
2023/04/07 00:59:21;;;;;;;17.13;11.70;;;;;;;5.19;91.25;95473.38;6092327;23;20226;-82
2023/04/07 01:02:06;;;;;;;17.23;11.53;;;;;;;5.28;90.29;95460.63;6068033;23;20157;-82
2023/04/07 01:04:35;;;;;;;15.70;11.27;;;;;;;5.20;89.80;95460.38;6068271;23;20160;-82
2023/04/07 01:07:05;;;;;;;14.77;10.73;;;;;;;5.04;90.48;95459.94;6068564;23;20248;-82
2023/04/07 01:10:01;;;;;;;16.30;11.53;;;;;;;5.13;90.32;95451.50;6091673;23;20200;-82
2023/04/07 01:12:38;;;;;;;14.80;10.93;;;;;;;5.14;90.00;95445.44;6043787;23;20223;-82
2023/04/07 01:15:12;;;;;;;15.73;11.23;;;;;;;5.11;90.23;95454.19;6067555;23;20159;-82
2023/04/07 01:17:42;;;;;;;15.23;10.30;;;;;;;5.10;89.83;95447.41;6068584;23;20192;-82
2023/04/07 01:20:15;;;;;;;14.47;10.33;;;;;;;5.28;89.60;95442.59;6068056;23;20623;-82
2023/04/07 01:22:43;;;;;;;15.90;11.70;;;;;;;5.25;89.87;95432.53;6068353;23;20160;-82
2023/04/07 01:26:00;;;;;;;15.40;11.10;;;;;;;5.39;89.61;95440.03;6067614;23;20235;-82
2023/04/07 01:28:31;;;;;;;17.13;10.97;;;;;;;5.32;89.64;95438.06;5926138;24;20210;-82
2023/04/07 01:30:58;;;;;;;16.40;11.30;;;;;;;5.18;90.24;95436.50;6063079;23;20558;-82
2023/04/07 01:33:25;;;;;;;17.43;11.43;;;;;;;5.25;89.82;95436.88;6067936;23;20632;-82
2023/04/07 01:35:50;;;;;;;14.87;10.30;;;;;;;5.11;90.11;95427.63;6067448;23;20208;-83
2023/04/07 01:38:16;;;;;;;12.70;10.30;;;;;;;5.14;89.88;95429.97;6067531;23;20157;-83
2023/04/07 01:40:42;;;;;;;14.57;10.63;;;;;;;5.23;89.94;95426.69;6068600;23;20177;-82
2023/04/07 01:43:08;;;;;;;13.87;10.00;;;;;;;5.12;89.83;95426.69;6069106;23;20172;-83
2023/04/07 01:45:35;;;;;;;13.93;10.87;;;;;;;5.14;89.87;95426.59;6092097;23;20161;-82
2023/04/07 01:48:00;;;;;;;13.00;10.03;;;;;;;5.09;90.62;95414.06;6068356;23;20165;-83
2023/04/07 01:50:26;;;;;;;14.03;10.33;;;;;;;5.05;89.98;95410.09;6068103;23;20651;-83
2023/04/07 01:52:51;;;;;;;14.50;9.97;;;;;;;5.12;89.77;95403.50;6068067;23;20201;-83
2023/04/07 01:55:17;;;;;;;13.07;10.23;;;;;;;5.13;90.33;95407.75;6067140;23;20161;-82
2023/04/07 01:57:42;;;;;;;12.33;9.23;;;;;;;5.10;90.30;95400.25;6067758;23;20161;-82
2023/04/07 02:00:08;;;;;;;10.13;8.47;;;;;;;5.16;90.16;95407.50;6067766;23;20173;-82
2023/04/07 02:02:35;;;;;;;11.53;9.23;;;;;;;5.27;89.47;95409.25;6044192;23;20618;-83
2023/04/07 02:05:04;;;;;;;12.50;9.03;;;;;;;5.21;89.76;95412.28;6067253;23;20169;-83
2023/04/07 02:07:38;;;;;;;13.03;8.90;;;;;;;5.12;90.16;95408.66;6067878;23;20164;-83
2023/04/07 02:10:05;;;;;;;10.63;8.70;;;;;;;5.14;90.92;95409.38;6067600;23;20235;-83
2023/04/07 02:12:32;;;;;;;9.97;8.73;;;;;;;5.21;89.74;95399.41;6067968;23;20181;-82
2023/04/07 02:14:57;;;;;;;12.17;9.03;;;;;;;5.20;89.97;95405.50;6090748;23;20161;-83
2023/04/07 02:17:24;;;;;;;11.77;8.50;;;;;;;5.14;90.52;95404.25;6067668;23;20192;-83
2023/04/07 02:19:50;;;;;;;10.83;7.83;;;;;;;5.17;90.29;95398.03;6067288;23;20173;-83
2023/04/07 02:22:16;;;;;;;9.13;7.80;;;;;;;5.25;89.81;95406.78;6067643;23;20166;-83
2023/04/07 02:24:41;;;;;;;10.67;8.50;;;;;;;5.11;90.90;95400.13;6067923;23;20199;-83
2023/04/07 02:27:07;;;;;;;15.40;8.40;;;;;;;5.21;89.82;95400.25;6067506;23;20162;-83
2023/04/07 02:29:32;;;;;;;10.70;7.37;;;;;;;5.31;89.96;95396.03;6067320;23;20925;-83
2023/04/07 02:31:57;;;;;;;9.20;7.33;;;;;;;5.18;90.21;95395.31;6067861;23;20183;-83
2023/04/07 02:34:23;;;;;;;10.20;7.80;;;;;;;5.18;90.61;95389.38;6067643;23;20157;-82
2023/04/07 02:36:48;;;;;;;8.80;7.13;;;;;;;5.14;91.48;95387.97;6067408;23;20153;-83
2023/04/07 02:39:13;;;;;;;12.60;7.33;;;;;;;5.16;90.95;95386.91;6068213;23;20181;-82
2023/04/07 02:41:38;;;;;;;10.53;7.83;;;;;;;5.22;91.08;95386.44;6067438;23;20175;-83
2023/04/07 02:44:04;;;;;;;8.90;6.90;;;;;;;5.21;91.10;95383.97;6067687;23;20188;-83
2023/04/07 02:46:29;;;;;;;9.83;6.87;;;;;;;5.25;90.93;95382.81;6067863;23;20607;-83
2023/04/07 02:48:54;;;;;;;9.67;7.07;;;;;;;5.17;90.99;95385.16;6067642;23;20655;-82
2023/04/07 02:51:20;;;;;;;9.17;6.37;;;;;;;5.21;91.39;95369.38;6044293;23;20152;-83
2023/04/07 02:53:45;;;;;;;7.90;6.90;;;;;;;5.25;91.06;95381.06;6043357;23;20161;-83
2023/04/07 02:56:10;;;;;;;9.50;6.60;;;;;;;5.28;90.64;95380.81;6042925;23;20204;-83
2023/04/07 02:58:36;;;;;;;8.47;6.37;;;;;;;5.45;90.00;95383.81;6043405;23;20160;-83
2023/04/07 03:01:01;;;;;;;8.97;6.20;;;;;;;5.45;89.47;95381.25;6043328;23;20233;-83
2023/04/07 03:03:26;;;;;;;8.97;6.30;;;;;;;5.52;89.59;95382.41;6068421;23;20157;-83
2023/04/07 03:05:51;;;;;;;10.80;6.47;;;;;;;5.49;89.84;95377.50;6042722;23;20491;-81
2023/04/07 03:08:17;;;;;;;8.23;6.73;;;;;;;5.51;89.39;95373.03;6043577;23;20157;-83
2023/04/07 03:10:42;;;;;;;9.57;6.03;;;;;;;5.56;89.43;95368.34;6044346;23;20646;-83
2023/04/07 03:13:08;;;;;;;7.30;6.07;;;;;;;5.48;90.00;95378.41;6043643;23;20161;-83
2023/04/07 03:15:33;;;;;;;7.73;6.47;;;;;;;5.36;90.53;95369.91;6043112;23;20209;-83
2023/04/07 03:17:58;;;;;;;7.77;6.30;;;;;;;5.50;89.72;95364.50;6043154;23;20157;-83
2023/04/07 03:20:24;;;;;;;10.17;7.00;;;;;;;5.56;89.31;95368.34;6042899;23;20169;-83
2023/04/07 03:22:49;;;;;;;9.97;6.17;;;;;;;5.57;89.50;95359.69;6043747;23;20157;-83
2023/04/07 03:25:15;;;;;;;8.70;6.30;;;;;;;5.67;89.25;95360.59;6042721;23;20164;-82
2023/04/07 03:27:40;;;;;;;8.33;6.83;;;;;;;5.55;89.59;95359.78;6043844;23;20161;-83
2023/04/07 03:30:06;;;;;;;9.53;6.47;;;;;;;5.59;89.58;95357.81;6044373;23;20193;-83
2023/04/07 03:32:31;;;;;;;9.67;6.53;;;;;;;5.60;90.05;95356.88;6044891;23;20172;-83
2023/04/07 03:34:56;;;;;;;9.90;6.73;;;;;;;5.45;91.11;95356.31;6043522;23;20175;-83
2023/04/07 03:37:22;;;;;;;9.37;6.00;;;;;;;5.49;90.35;95356.91;6044074;23;20165;-83
2023/04/07 03:39:47;;;;;;;7.17;6.23;;;;;;;5.48;90.55;95352.66;6043382;23;20247;-83
2023/04/07 03:42:12;;;;;;;9.90;6.63;;;;;;;5.51;90.58;95350.69;6068100;23;20153;-82
2023/04/07 03:44:38;;;;;;;9.33;6.47;;;;;;;5.60;90.12;95349.13;6043192;23;20153;-82
2023/04/07 03:47:03;;;;;;;8.73;6.27;;;;;;;5.62;90.02;95345.50;6043610;23;20604;-83
2023/04/07 03:49:30;;;;;;;8.17;6.53;;;;;;;5.62;89.52;95347.25;6069764;23;20791;-82
2023/04/07 03:51:55;;;;;;;8.43;6.37;;;;;;;5.57;90.25;95345.06;6068353;23;20189;-83
2023/04/07 03:54:20;;;;;;;9.50;6.17;;;;;;;5.69;89.64;95344.06;6067108;23;20616;-83
2023/04/07 03:56:46;;;;;;;7.90;6.07;;;;;;;5.68;89.35;95332.13;6092008;23;20162;-83
2023/04/07 03:59:11;;;;;;;8.60;6.50;;;;;;;5.73;89.29;95336.91;6069468;23;20185;-83
2023/04/07 04:01:36;;;;;;;8.13;6.63;;;;;;;5.73;88.98;95334.31;6069232;23;20189;-83
2023/04/07 04:04:02;;;;;;;8.40;7.37;;;;;;;5.71;89.39;95330.25;6069629;23;20321;-83
2023/04/07 04:06:27;;;;;;;9.93;8.40;;;;;;;5.68;89.29;95336.47;6069236;23;20177;-83
2023/04/07 04:08:52;;;;;;;11.63;10.53;;;;;;;5.67;89.18;95330.50;6090283;23;20182;-83
2023/04/07 04:11:17;;;;;;;8.90;8.00;;;;;;;5.68;89.79;95341.63;6066779;23;20165;-83
2023/04/07 04:13:43;;;;;;;12.87;10.10;;;;;;;5.63;90.00;95341.16;6066684;23;20169;-83
2023/04/07 04:16:08;;;;;;;16.70;12.83;;;;;;;5.59;90.20;95337.19;6066382;23;20612;-83
2023/04/07 04:18:34;;;;;;;12.07;8.70;;;;;;;5.60;90.02;95331.09;6069636;23;20202;-83
2023/04/07 04:20:59;;;;;;;10.87;8.60;;;;;;;5.54;90.97;95336.75;6068025;23;20177;-83
2023/04/07 04:23:24;;;;;;;9.00;7.63;;;;;;;5.52;90.32;95338.63;6067173;23;20176;-82
2023/04/07 04:25:50;;;;;;;10.17;8.07;;;;;;;5.56;90.52;95337.44;6066477;23;20476;-83
2023/04/07 04:28:16;;;;;;;9.40;7.13;;;;;;;5.56;89.84;95347.72;6090341;23;20161;-83
2023/04/07 04:30:41;;;;;;;10.57;6.97;;;;;;;5.56;90.25;95338.25;6066996;23;20177;-83
2023/04/07 04:33:06;;;;;;;6.97;6.30;;;;;;;5.56;89.91;95342.56;6066760;23;20195;-83
2023/04/07 04:35:31;;;;;;;8.70;6.67;;;;;;;5.58;90.04;95348.44;6066448;23;20240;-82
2023/04/07 04:37:57;;;;;;;9.03;6.80;;;;;;;5.59;89.75;95342.34;6068601;23;20158;-82
2023/04/07 04:40:22;;;;;;;9.13;6.23;;;;;;;5.54;90.75;95337.56;6070203;23;20556;-82
2023/04/07 04:42:47;;;;;;;8.30;5.77;;;;;;;5.58;90.30;95340.72;6068919;23;20627;-83
2023/04/07 04:45:13;;;;;;;10.13;6.50;;;;;;;5.67;89.91;95342.56;6092228;23;20161;-83
2023/04/07 04:47:38;;;;;;;7.57;6.33;;;;;;;5.64;89.45;95341.03;6068549;23;20217;-82
2023/04/07 04:50:05;;;;;;;8.20;6.67;;;;;;;5.69;89.55;95346.66;6068656;23;20193;-83
2023/04/07 04:52:31;;;;;;;8.73;6.47;;;;;;;5.61;89.45;95348.19;6068762;23;20241;-82
2023/04/07 04:54:56;;;;;;;8.27;6.43;;;;;;;5.60;89.35;95343.97;6068482;23;20466;-82
2023/04/07 04:57:21;;;;;;;7.67;6.27;;;;;;;5.54;89.69;95352.19;6068493;23;20666;-83
2023/04/07 04:59:46;;;;;;;10.00;6.37;;;;;;;5.49;89.94;95350.00;6068100;23;20176;-83
2023/04/07 05:02:12;;;;;;;9.03;6.80;;;;;;;5.48;90.29;95353.50;6092239;23;20164;-83
2023/04/07 05:04:37;;;;;;;8.77;6.67;;;;;;;5.53;90.49;95353.13;6067471;23;20175;-83
2023/04/07 05:07:03;;;;;;;12.07;6.33;;;;;;;5.46;90.33;95351.97;6092322;23;20785;-82
2023/04/07 05:09:28;;;;;;;9.53;6.40;;;;;;;5.35;91.25;95350.25;6068086;23;20205;-83
2023/04/07 05:11:53;;;;;;;8.50;6.83;;;;;;;5.39;90.69;95347.31;6069005;23;20161;-83
2023/04/07 05:14:18;;;;;;;9.13;7.80;;;;;;;5.39;90.54;95356.81;6068926;23;20608;-82
2023/04/07 05:16:44;;;;;;;12.33;8.60;;;;;;;5.35;90.49;95355.41;6067991;23;20164;-82
2023/04/07 05:19:09;;;;;;;16.10;11.90;;;;;;;5.33;90.75;95358.09;6069054;23;20177;-82
2023/04/07 05:21:34;;;;;;;13.23;9.43;;;;;;;5.34;91.02;95354.59;6068605;23;20153;-83
2023/04/07 05:24:00;;;;;;;18.23;13.73;;;;;;;5.29;90.46;95351.53;6069203;23;20173;-83
2023/04/07 05:26:25;;;;;;;18.97;14.10;;;;;;;5.35;90.32;95345.91;6069023;23;20764;-83
2023/04/07 05:28:51;;;;;;;17.10;10.07;;;;;;;5.33;90.86;95345.22;6069227;23;20189;-83
2023/04/07 05:31:16;;;;;;;11.43;9.23;;;;;;;5.40;90.13;95345.56;6068594;23;20157;-83
2023/04/07 05:33:41;;;;;;;10.47;7.17;;;;;;;5.42;90.21;95350.59;6068123;23;20161;-83
2023/04/07 05:36:07;;;;;;;10.23;6.53;;;;;;;5.54;89.82;95341.88;6068044;23;20157;-83
2023/04/07 05:38:32;;;;;;;7.67;5.93;;;;;;;5.64;89.36;95343.59;6070013;23;20165;-83
2023/04/07 05:40:57;;;;;;;8.57;6.00;;;;;;;5.76;88.41;95346.97;6069054;23;20192;-82
2023/04/07 05:43:23;;;;;;;10.67;5.43;;;;;;;5.82;88.40;95345.66;6069013;23;20188;-83
2023/04/07 05:45:48;;;;;;;6.13;5.53;;;;;;;6.01;87.32;95347.59;6068354;23;20228;-82
2023/04/07 05:48:13;;;;;;;7.43;5.23;;;;;;;6.17;86.12;95348.78;6071069;23;20213;-83
2023/04/07 05:50:39;;;;;;;6.53;5.20;;;;;;;6.43;85.68;95354.38;6070979;23;20504;-83
2023/04/07 05:53:04;;;;;;;7.90;6.10;;;;;;;6.64;84.32;95345.81;6070968;23;20172;-82
2023/04/07 05:55:30;;;;;;;6.33;5.40;;;;;;;6.85;83.72;95349.16;6070232;23;20172;-83
2023/04/07 05:57:55;;;;;;;7.27;5.50;;;;;;;7.06;81.91;95349.91;6069510;23;20154;-82
2023/04/07 06:00:20;;;;;;;7.70;5.37;;;;;;;7.32;81.31;95354.63;6068780;23;20173;-83
2023/04/07 06:02:46;;;;;;;6.83;5.40;;;;;;;7.45;80.18;95354.38;6069437;23;20153;-82
2023/04/07 06:05:11;;;;;;;8.63;6.90;;;;;;;7.62;79.94;95354.56;6067061;23;20204;-82
2023/04/07 06:07:36;;;;;;;7.30;5.90;;;;;;;7.66;78.66;95353.31;6069544;23;20161;-84
2023/04/07 06:10:02;;;;;;;7.80;5.17;;;;;;;7.84;78.66;95353.47;6073749;23;20205;-84
2023/04/07 06:12:27;;;;;;;5.20;4.70;;;;;;;7.80;76.85;95352.13;6095215;23;20157;-82
2023/04/07 06:14:54;;;;;;;5.50;4.90;;;;;;;7.89;77.15;95347.91;6093882;23;20153;-83
2023/04/07 06:17:19;;;;;;;6.50;5.13;;;;;;;7.79;77.30;95357.44;6095251;23;20203;-82
2023/04/07 06:19:45;;;;;;;6.80;4.97;;;;;;;7.74;76.73;95357.00;6094847;23;20197;-82
2023/04/07 06:22:10;;;;;;;5.97;4.50;;;;;;;7.87;76.94;95355.81;6095055;23;20193;-83
2023/04/07 06:24:36;;;;;;;5.47;4.50;;;;;;;7.94;76.93;95354.28;6118324;23;20196;-82
2023/04/07 06:27:02;;;;;;;7.60;5.90;;;;;;;7.97;76.78;95357.56;6117957;23;20169;-82
2023/04/07 06:29:28;;;;;;;7.63;5.23;;;;;;;8.04;76.75;95354.31;6084242;23;20221;-82
2023/04/07 06:31:53;;;;;;;8.47;6.00;;;;;;;8.32;76.06;95351.84;6069869;23;20603;-82
2023/04/07 06:34:18;;;;;;;6.97;5.70;;;;;;;8.26;74.78;95363.53;6069501;23;20167;-82
2023/04/07 06:36:44;;;;;;;9.00;5.63;;;;;;;8.36;74.81;95359.19;6070481;23;20162;-81
2023/04/07 06:39:09;;;;;;;5.53;4.97;;;;;;;8.68;72.87;95358.06;6080621;23;20185;-82
2023/04/07 06:41:35;;;;;;;6.87;4.90;;;;;;;8.70;71.74;95351.78;6088076;23;20256;-84
2023/04/07 06:44:00;;;;;;;6.43;4.90;;;;;;;9.01;71.47;95354.97;6088035;23;20157;-83
2023/04/07 06:46:26;;;;;;;7.10;4.73;;;;;;;8.93;69.89;95356.63;6086825;23;20222;-84
2023/04/07 06:48:51;;;;;;;5.80;4.93;;;;;;;9.00;70.78;95358.47;6084832;23;20237;-85
2023/04/07 06:51:17;;;;;;;6.40;4.40;;;;;;;8.97;70.02;95357.97;6084135;23;20165;-84
2023/04/07 06:53:43;;;;;;;5.10;4.60;;;;;;;9.04;67.71;95364.19;6063148;23;20162;-85
2023/04/07 06:56:10;;;;;;;5.30;4.27;;;;;;;9.09;67.54;95362.78;6062503;23;20192;-86
2023/04/07 06:58:36;;;;;;;5.00;4.33;;;;;;;9.29;68.29;95360.97;6063029;23;20152;-85
2023/04/07 07:01:02;;;;;;;6.13;4.00;;;;;;;9.01;66.13;95359.28;6039575;23;20181;-85
2023/04/07 07:03:28;;;;;;;6.97;4.50;;;;;;;8.79;68.03;95361.28;6062488;23;20408;-84
2023/04/07 07:05:57;;;;;;;5.37;4.40;;;;;;;8.76;68.48;95368.53;6061180;23;20188;-85
2023/04/07 07:08:26;;;;;;;6.43;4.90;;;;;;;8.48;69.40;95368.47;6062124;23;20176;-85
2023/04/07 07:10:51;;;;;;;4.97;4.43;;;;;;;8.67;70.69;95366.78;6039655;23;20243;-85
2023/04/07 07:13:22;;;;;;;8.00;5.00;;;;;;;8.78;71.55;95367.41;6062443;23;20181;-86
2023/04/07 07:15:47;;;;;;;5.50;5.00;;;;;;;8.92;71.27;95367.91;6060951;23;20165;-86
2023/04/07 07:18:13;;;;;;;6.63;5.60;;;;;;;8.50;72.60;95373.50;6062911;23;20160;-85
2023/04/07 07:20:38;;;;;;;5.53;5.03;;;;;;;8.38;72.63;95366.81;6087502;23;20184;-83
2023/04/07 07:23:03;;;;;;;6.50;5.33;;;;;;;8.46;73.54;95372.13;6063786;23;20161;-85
2023/04/07 07:25:29;;;;;;;5.40;4.63;;;;;;;8.82;70.74;95369.72;6060698;23;20454;-85
2023/04/07 07:27:54;;;;;;;5.20;4.53;;;;;;;8.75;70.38;95369.50;6046578;23;20153;-85
2023/04/07 07:30:20;;;;;;;5.60;4.90;;;;;;;8.62;71.31;95374.13;6045094;23;20245;-84
2023/04/07 07:32:45;;;;;;;8.03;6.20;;;;;;;8.70;70.63;95364.72;6069115;23;20168;-83
2023/04/07 07:35:11;;;;;;;6.03;4.77;;;;;;;8.77;71.07;95363.22;6044418;23;20165;-85
2023/04/07 07:37:36;;;;;;;7.03;4.90;;;;;;;8.87;70.61;95367.53;6045308;23;20172;-85
2023/04/07 07:40:02;;;;;;;5.60;4.97;;;;;;;8.67;70.69;95365.00;6044602;23;20169;-85
2023/04/07 07:42:27;;;;;;;5.27;4.60;;;;;;;8.74;71.41;95363.47;6045429;23;20158;-86
2023/04/07 07:44:52;;;;;;;5.07;4.37;;;;;;;8.84;70.16;95368.66;6044303;23;20603;-86
2023/04/07 07:47:17;;;;;;;7.40;4.20;;;;;;;9.04;70.01;95361.63;6044955;23;20168;-86
2023/04/07 07:49:43;;;;;;;5.73;4.70;;;;;;;9.08;69.23;95368.13;6050605;23;20658;-86
2023/04/07 07:52:09;;;;;;;6.13;4.67;;;;;;;9.13;69.82;95371.13;6069640;23;20172;-81
2023/04/07 07:54:35;;;;;;;4.90;4.33;;;;;;;9.11;68.71;95370.44;6090980;23;20558;-81
2023/04/07 07:57:01;;;;;;;5.90;5.27;;;;;;;9.16;67.93;95370.81;6067874;23;20165;-81
2023/04/07 07:59:27;;;;;;;4.63;4.23;;;;;;;9.40;67.88;95370.31;6065285;23;20174;-79
2023/04/07 08:01:52;;;;;;;5.93;4.60;;;;;;;9.61;67.66;95380.41;6066592;23;20536;-83
2023/04/07 08:04:18;;;;;;;6.23;4.43;;;;;;;9.73;67.22;95376.66;6092960;23;20217;-84
2023/04/07 08:06:43;;;;;;;7.00;4.30;;;;;;;9.68;68.06;95375.47;6067850;23;20504;-84
2023/04/07 08:09:08;;;;;;;4.53;3.90;;;;;;;9.73;65.51;95379.25;6091988;23;20189;-85
2023/04/07 08:11:33;;;;;;;7.20;4.30;;;;;;;9.86;65.78;95381.50;6069411;23;20161;-85
2023/04/07 08:13:59;;;;;;;6.77;3.90;;;;;;;10.18;65.05;95383.59;6069461;23;20604;-84
2023/04/07 08:16:25;;;;;;;6.27;4.17;;;;;;;10.87;63.67;95390.63;6069533;23;20158;-85
2023/04/07 08:18:51;;;;;;;5.67;4.10;;;;;;;10.97;61.36;95385.31;6070236;23;20157;-85
2023/04/07 08:21:16;;;;;;;7.53;4.10;;;;;;;11.44;61.02;95390.91;6070962;23;20185;-84
2023/04/07 08:23:41;;;;;;;5.17;4.67;;;;;;;11.20;58.71;95389.00;6070244;23;20505;-84
2023/04/07 08:26:07;;;;;;;7.10;4.20;;;;;;;10.78;61.74;95392.34;6070110;23;20483;-85
2023/04/07 08:28:32;;;;;;;6.33;4.10;;;;;;;10.86;61.60;95395.94;6070271;23;20161;-85
2023/04/07 08:30:57;;;;;;;4.97;3.77;;;;;;;10.65;61.28;95394.53;6069031;23;20196;-80
2023/04/07 08:33:23;;;;;;;5.93;3.10;;;;;;;10.14;62.88;95390.84;6067605;23;20173;-80
2023/04/07 08:35:48;;;;;;;3.70;2.50;;;;;;;10.36;62.34;95394.78;6067637;23;20172;-82
2023/04/07 08:38:14;;;;;;;6.30;3.10;;;;;;;10.37;62.13;95401.63;6067785;23;20145;-82
2023/04/07 08:40:39;;;;;;;4.30;3.03;;;;;;;10.53;62.71;95397.53;6065856;23;20693;-80
2023/04/07 08:43:07;;;;;;;5.87;3.17;;;;;;;10.40;61.87;95396.13;6066856;23;20188;-80
2023/04/07 08:45:33;;;;;;;3.73;2.77;;;;;;;10.14;62.09;95403.00;6066093;23;20157;-80
2023/04/07 08:48:02;;;;;;;3.40;2.60;;;;;;;10.47;61.24;95396.34;6067503;23;20162;-78
2023/04/07 08:50:27;;;;;;;2.93;2.47;;;;;;;10.34;61.73;95396.72;6066934;23;20516;-78
2023/04/07 08:52:55;;;;;;;4.57;2.87;;;;;;;10.59;61.52;95400.31;6067461;23;20181;-78
2023/04/07 08:55:20;;;;;;;5.07;3.30;;;;;;;10.69;59.85;95403.66;6065073;23;20169;-79
2023/04/07 08:57:46;;;;;;;3.47;2.70;;;;;;;10.89;60.90;95406.06;6066946;23;20232;-80
2023/04/07 09:00:13;;;;;;;6.10;3.57;;;;;;;11.00;60.40;95405.78;6066804;23;20544;-80
2023/04/07 09:02:46;;;;;;;5.87;3.27;;;;;;;10.96;60.02;95397.50;6067192;23;20507;-80
2023/04/07 09:05:13;;;;;;;4.43;2.70;;;;;;;11.30;60.17;95400.09;6089667;23;20148;-80
2023/04/07 09:07:44;;;;;;;6.80;3.10;;;;;;;11.26;60.53;95392.78;6066894;23;20741;-80
2023/04/07 09:10:10;;;;;;;5.23;3.07;;;;;;;11.26;57.46;95392.78;6090580;23;20193;-79
2023/04/07 09:12:36;;;;;;;4.07;2.53;;;;;;;11.54;57.64;95401.19;6066755;23;20192;-78
2023/04/07 09:15:01;;;;;;;4.17;2.13;;;;;;;11.85;56.32;95399.69;6066589;23;20184;-79
2023/04/07 09:17:27;;;;;;;5.27;2.20;;;;;;;12.12;56.10;95408.22;6068528;23;20161;-79
2023/04/07 09:19:59;;;;;;;4.27;2.50;;;;;;;11.98;54.30;95409.63;6042788;23;20647;-78
2023/04/07 09:22:42;;;;;;;5.67;2.23;;;;;;;11.82;53.40;95412.19;6066124;23;20177;-79
2023/04/07 09:25:12;;;;;;;3.87;1.90;;;;;;;11.67;52.66;95405.94;6066716;23;20179;-80
2023/04/07 09:27:37;;;;;;;3.53;1.73;;;;;;;12.10;52.45;95413.59;6091614;23;20540;-79
2023/04/07 09:30:16;;;;;;;4.30;1.70;;;;;;;12.01;52.25;95414.50;6066194;23;20243;-80
2023/04/07 09:32:41;;;;;;;3.60;2.03;;;;;;;12.04;54.01;95410.78;6067207;23;20161;-78
2023/04/07 09:35:07;;;;;;;3.77;2.13;;;;;;;11.67;56.33;95414.56;6090104;23;20168;-79
2023/04/07 09:37:32;;;;;;;3.43;2.53;;;;;;;11.90;56.64;95409.59;6066506;23;20614;-80
2023/04/07 09:39:57;;;;;;;5.20;3.03;;;;;;;12.27;54.87;95413.56;6066789;23;20642;-79
2023/04/07 09:42:23;;;;;;;3.37;2.60;;;;;;;12.34;55.04;95410.19;6066912;23;20165;-79
2023/04/07 09:44:48;;;;;;;4.80;2.70;;;;;;;12.35;54.26;95421.41;6065506;23;20161;-79
2023/04/07 09:47:14;;;;;;;3.07;2.10;;;;;;;12.13;55.17;95409.84;6066353;23;20172;-78
2023/04/07 09:49:52;;;;;;;4.00;2.20;;;;;;;12.23;56.55;95422.69;6090107;23;20669;-79
2023/04/07 09:52:19;;;;;;;3.67;2.70;;;;;;;12.14;55.12;95417.47;6042939;23;20165;-79
2023/04/07 09:54:45;;;;;;;4.43;3.00;;;;;;;12.57;53.75;95418.16;6088537;23;20236;-80
2023/04/07 09:57:12;;;;;;;4.17;2.30;;;;;;;12.45;51.88;95415.06;6066513;23;20520;-79
2023/04/07 09:59:41;;;;;;;4.30;2.00;;;;;;;12.59;52.79;95418.81;6090176;23;20177;-80
2023/04/07 10:02:07;;;;;;;5.37;2.27;;;;;;;12.46;52.36;95416.72;6066776;23;20489;-79
2023/04/07 10:04:32;;;;;;;3.63;2.03;;;;;;;12.63;52.70;95422.75;6042397;23;20243;-79
2023/04/07 10:06:59;;;;;;;5.13;2.30;;;;;;;12.68;51.25;95422.22;6065752;23;20244;-79
2023/04/07 10:09:27;;;;;;;4.33;2.27;;;;;;;12.66;51.63;95424.19;6066192;23;20189;-78
2023/04/07 10:11:55;;;;;;;3.03;2.10;;;;;;;12.02;52.63;95425.75;6090249;23;20153;-79
2023/04/07 10:14:22;;;;;;;8.07;2.23;;;;;;;12.47;52.40;95426.16;6089935;23;20165;-81
2023/04/07 10:16:47;;;;;;;4.83;2.73;;;;;;;12.47;52.58;95427.94;6089489;23;20493;-81
2023/04/07 10:19:13;;;;;;;3.03;2.30;;;;;;;12.66;52.36;95422.41;6066161;23;20174;-81
2023/04/07 10:21:41;;;;;;;4.03;2.23;;;;;;;12.30;53.28;95423.69;6066170;23;20501;-80
2023/04/07 10:24:18;;;;;;;6.93;2.50;;;;;;;12.18;54.15;95426.56;6066286;23;20189;-79
2023/04/07 10:26:44;;;;;;;3.63;1.87;;;;;;;12.07;53.29;95423.47;6065873;23;20208;-80
2023/04/07 10:29:12;;;;;;;5.97;2.20;;;;;;;11.99;54.13;95429.47;6065984;23;20651;-80
2023/04/07 10:31:38;;;;;;;2.97;2.07;;;;;;;12.02;53.84;95420.56;6066555;23;20890;-81
2023/04/07 10:34:04;;;;;;;3.27;1.87;;;;;;;11.90;54.16;95420.03;6067673;23;20158;-80
2023/04/07 10:36:30;;;;;;;3.90;2.03;;;;;;;12.39;53.12;95425.31;6065328;23;20545;-80
2023/04/07 10:39:08;;;;;;;3.70;2.20;;;;;;;12.52;54.71;95419.63;6066095;23;20154;-80
2023/04/07 10:41:37;;;;;;;3.70;2.40;;;;;;;12.23;52.74;95425.31;6066408;23;20165;-80
2023/04/07 10:44:04;;;;;;;4.80;2.10;;;;;;;12.14;51.50;95417.47;6066628;23;20213;-80
2023/04/07 10:46:44;;;;;;;3.83;2.20;;;;;;;12.49;51.01;95418.16;6066020;23;20236;-80
2023/04/07 10:49:10;;;;;;;5.10;2.37;;;;;;;12.42;51.37;95425.00;6065344;23;20283;-80
2023/04/07 10:51:36;;;;;;;5.00;2.70;;;;;;;11.71;53.39;95430.66;6042228;23;20161;-79
2023/04/07 10:54:22;;;;;;;3.90;2.27;;;;;;;12.08;54.12;95419.91;6065019;23;20494;-80
2023/04/07 10:57:02;;;;;;;4.13;2.50;;;;;;;12.42;53.86;95427.59;6042326;23;20177;-79
2023/04/07 10:59:39;;;;;;;3.67;2.60;;;;;;;12.51;53.28;95421.41;6043165;23;20534;-82
2023/04/07 11:02:14;;;;;;;3.63;2.80;;;;;;;12.47;53.37;95425.34;6043085;23;20152;-82
2023/04/07 11:04:42;;;;;;;6.13;2.47;;;;;;;12.69;51.10;95424.66;6042457;23;20165;-81
2023/04/07 11:07:08;;;;;;;2.90;2.23;;;;;;;12.48;52.16;95422.56;6043141;23;20162;-81
2023/04/07 11:09:33;;;;;;;3.13;2.60;;;;;;;12.43;52.01;95421.41;6067258;23;20579;-83
2023/04/07 11:11:58;;;;;;;5.23;2.40;;;;;;;12.59;50.45;95412.78;6040975;23;20247;-82
2023/04/07 11:14:28;;;;;;;3.87;2.70;;;;;;;12.70;51.77;95415.06;6042993;23;20165;-81
2023/04/07 11:16:53;;;;;;;5.00;2.90;;;;;;;12.81;51.88;95417.34;6042687;23;20209;-81
2023/04/07 11:19:18;;;;;;;4.00;2.70;;;;;;;12.94;51.97;95415.03;6066969;23;20174;-81
2023/04/07 11:21:44;;;;;;;2.97;2.43;;;;;;;13.09;48.27;95409.97;6065112;23;20165;-81
2023/04/07 11:24:10;;;;;;;3.03;2.20;;;;;;;13.45;48.22;95417.41;6043937;23;20161;-81
2023/04/07 11:26:39;;;;;;;3.37;2.10;;;;;;;13.34;47.41;95418.59;6042650;23;20157;-81
2023/04/07 11:29:05;;;;;;;2.73;2.23;;;;;;;13.14;48.41;95414.69;6066792;23;20247;-81
2023/04/07 11:31:31;;;;;;;5.73;2.67;;;;;;;12.87;48.03;95421.88;6043695;23;20201;-82